createdAt,value
2023-04-23T00:01:48.112Z,2.50
2023-04-23T00:04:52.942Z,2.35
2023-04-23T00:07:54.784Z,2.10
2023-04-23T00:10:56.680Z,1.80
2023-04-23T00:13:58.368Z,2.28
2023-04-23T00:16:59.796Z,2.40
2023-04-23T00:20:01.346Z,2.15
2023-04-23T00:23:02.905Z,2.05
2023-04-23T00:26:04.716Z,1.65
2023-04-23T00:29:06.140Z,2.00
2023-04-23T00:32:07.951Z,2.40
2023-04-23T00:35:09.756Z,1.90
2023-04-23T00:38:11.376Z,1.40
2023-04-23T00:41:12.962Z,1.60
2023-04-23T00:44:14.871Z,1.70
2023-04-23T00:47:16.854Z,1.73
2023-04-23T00:50:18.738Z,1.77
2023-04-23T00:53:20.286Z,1.27
2023-04-23T00:56:23.890Z,1.60
2023-04-23T00:59:26.311Z,2.05
2023-04-23T01:02:31.147Z,1.50
2023-04-23T01:05:32.830Z,1.70
2023-04-23T01:08:34.861Z,1.52
2023-04-23T01:11:39.492Z,1.40
2023-04-23T01:14:41.655Z,1.58
2023-04-23T01:17:43.487Z,1.58
2023-04-23T01:20:45.026Z,1.58
2023-04-23T01:23:46.774Z,1.60
2023-04-23T01:26:48.332Z,1.90
2023-04-23T01:29:49.862Z,1.58
2023-04-23T01:32:55.229Z,1.40
2023-04-23T01:35:57.447Z,1.25
2023-04-23T01:38:59.087Z,1.45
2023-04-23T01:42:01.443Z,1.33
2023-04-23T01:45:03.618Z,1.30
2023-04-23T01:48:05.450Z,1.75
2023-04-23T01:51:07.159Z,1.95
2023-04-23T01:54:08.656Z,1.65
2023-04-23T01:57:10.827Z,2.08
2023-04-23T02:00:14.812Z,1.90
2023-04-23T02:06:18.272Z,1.63
2023-04-23T02:09:19.884Z,1.70
2023-04-23T02:12:21.409Z,2.25
2023-04-23T02:15:22.942Z,2.35
2023-04-23T02:18:24.591Z,2.30
2023-04-23T02:21:27.358Z,2.25
2023-04-23T02:24:28.882Z,1.92
2023-04-23T02:27:30.500Z,1.73
2023-04-23T02:30:32.123Z,1.92
2023-04-23T02:33:33.660Z,2.30
2023-04-23T02:36:35.096Z,1.70
2023-04-23T02:39:38.954Z,1.80
2023-04-23T02:42:43.236Z,1.75
2023-04-23T02:45:45.490Z,2.15
2023-04-23T02:48:47.107Z,1.90
2023-04-23T02:51:48.654Z,1.83
2023-04-23T02:54:51.078Z,1.95
2023-04-23T02:57:52.536Z,1.52
2023-04-23T03:00:54.672Z,2.15
2023-04-23T03:03:56.533Z,1.92
2023-04-23T03:06:58.528Z,1.85
2023-04-23T03:10:00.212Z,2.00
2023-04-23T03:13:01.773Z,1.88
2023-04-23T03:16:03.722Z,1.35
2023-04-23T03:19:05.398Z,1.60
2023-04-23T03:22:07.000Z,1.35
2023-04-23T03:25:09.187Z,1.92
2023-04-23T03:28:10.711Z,1.42
2023-04-23T03:31:12.955Z,1.60
2023-04-23T03:34:14.737Z,1.58
2023-04-23T03:37:16.624Z,2.20
2023-04-23T03:40:19.533Z,1.48
2023-04-23T03:43:23.898Z,1.63
2023-04-23T03:46:48.284Z,1.65
2023-04-23T03:49:51.415Z,1.05
2023-04-23T03:52:53.084Z,1.35
2023-04-23T03:56:14.590Z,1.65
2023-04-23T03:59:24.049Z,1.58
2023-04-23T04:02:28.191Z,2.20
2023-04-23T04:05:29.952Z,1.77
2023-04-23T04:08:31.569Z,1.65
2023-04-23T04:11:33.043Z,1.45
2023-04-23T04:14:34.619Z,1.58
2023-04-23T04:17:36.149Z,1.60
2023-04-23T04:20:37.882Z,1.75
2023-04-23T04:23:39.849Z,2.30
2023-04-23T04:26:42.071Z,2.85
2023-04-23T04:29:43.647Z,2.03
2023-04-23T04:32:46.229Z,2.45
2023-04-23T04:35:49.631Z,2.13
2023-04-23T04:38:51.848Z,2.20
2023-04-23T04:41:54.437Z,2.25
2023-04-23T04:44:59.228Z,2.15
2023-04-23T04:48:00.805Z,2.40
2023-04-23T04:51:02.299Z,1.90
2023-04-23T04:54:04.155Z,1.73
2023-04-23T04:57:06.392Z,2.15
2023-04-23T05:00:29.297Z,1.73
2023-04-23T05:03:31.376Z,1.90
2023-04-23T05:06:32.967Z,2.35
2023-04-23T05:09:34.529Z,2.38
2023-04-23T05:12:37.188Z,2.05
2023-04-23T05:15:38.660Z,2.25
2023-04-23T05:18:41.396Z,2.75
2023-04-23T05:21:42.904Z,2.08
2023-04-23T05:24:45.488Z,2.28
2023-04-23T05:27:47.033Z,2.85
2023-04-23T05:30:49.655Z,2.80
2023-04-23T05:33:51.216Z,3.05
2023-04-23T05:36:52.745Z,2.90
2023-04-23T05:39:54.251Z,3.05
2023-04-23T05:42:58.286Z,2.45
2023-04-23T05:49:01.253Z,2.58
2023-04-23T05:52:03.172Z,2.45
2023-04-23T05:55:05.396Z,2.33
2023-04-23T05:58:07.126Z,2.65
2023-04-23T06:01:08.691Z,2.05
2023-04-23T06:04:10.354Z,2.28
2023-04-23T06:07:12.683Z,2.75
2023-04-23T06:10:14.320Z,2.42
2023-04-23T06:13:16.292Z,3.00
2023-04-23T06:16:17.836Z,2.80
2023-04-23T06:19:19.335Z,2.80
2023-04-23T06:22:20.902Z,3.22
2023-04-23T06:25:22.493Z,2.45
2023-04-23T06:28:24.266Z,2.97
2023-04-23T06:32:01.558Z,2.92
2023-04-23T06:35:09.513Z,2.78
2023-04-23T06:38:11.048Z,2.70
2023-04-23T06:41:15.376Z,2.90
2023-04-23T06:44:16.877Z,3.15
2023-04-23T06:47:27.085Z,3.28
2023-04-23T06:50:28.702Z,3.10
2023-04-23T06:53:30.287Z,2.88
2023-04-23T06:56:31.745Z,3.33
2023-04-23T06:59:33.349Z,3.50
2023-04-23T07:02:36.217Z,2.92
2023-04-23T07:05:37.785Z,3.03
2023-04-23T07:08:39.777Z,3.40
2023-04-23T07:11:41.447Z,3.28
2023-04-23T07:14:43.760Z,3.05
2023-04-23T07:17:46.096Z,3.38
2023-04-23T07:20:47.611Z,3.17
2023-04-23T07:23:49.087Z,3.53
2023-04-23T07:26:50.725Z,3.80
2023-04-23T07:29:52.254Z,3.88
2023-04-23T07:32:54.464Z,3.47
2023-04-23T07:35:56.088Z,3.50
2023-04-23T07:39:06.973Z,4.47
2023-04-23T07:42:08.941Z,3.58
2023-04-23T07:45:11.377Z,3.60
2023-04-23T07:48:12.888Z,3.67
2023-04-23T07:51:14.500Z,3.97
2023-04-23T07:54:15.956Z,3.40
2023-04-23T07:57:17.462Z,3.05
2023-04-23T08:00:19.056Z,3.13
2023-04-23T08:03:21.180Z,3.35
2023-04-23T08:06:23.500Z,3.15
2023-04-23T08:09:26.001Z,3.30
2023-04-23T08:12:27.498Z,3.53
2023-04-23T08:15:29.130Z,3.00
2023-04-23T08:18:31.043Z,2.92
2023-04-23T08:21:33.061Z,2.85
2023-04-23T08:24:34.515Z,2.55
2023-04-23T08:27:36.575Z,2.63
2023-04-23T08:30:38.628Z,2.60
2023-04-23T08:33:40.452Z,3.15
2023-04-23T08:36:42.007Z,3.10
2023-04-23T08:39:43.747Z,3.00
2023-04-23T08:42:49.599Z,2.83
2023-04-23T08:45:51.398Z,2.10
2023-04-23T08:48:53.416Z,2.40
2023-04-23T08:51:58.285Z,2.58
2023-04-23T08:55:01.483Z,2.38
2023-04-23T08:58:06.284Z,2.20
2023-04-23T09:01:08.531Z,2.30
2023-04-23T09:04:11.158Z,2.45
2023-04-23T09:07:13.124Z,2.45
2023-04-23T09:10:18.262Z,2.30
2023-04-23T09:13:20.273Z,2.45
2023-04-23T09:16:21.936Z,2.22
2023-04-23T09:19:27.599Z,2.00
2023-04-23T09:22:49.384Z,2.22
2023-04-23T09:25:51.020Z,2.08
2023-04-23T09:28:52.686Z,2.40
2023-04-23T09:31:56.111Z,2.25
2023-04-23T09:34:57.756Z,2.08
2023-04-23T09:37:59.326Z,1.98
2023-04-23T09:41:20.919Z,1.90
2023-04-23T09:44:23.136Z,1.98
2023-04-23T09:47:25.425Z,1.92
2023-04-23T09:50:37.013Z,1.90
2023-04-23T09:53:45.847Z,2.20
2023-04-23T09:56:53.662Z,2.30
2023-04-23T10:00:07.225Z,1.95
2023-04-23T10:03:15.777Z,1.83
2023-04-23T10:06:37.072Z,2.40
2023-04-23T10:09:41.824Z,2.20
2023-04-23T10:12:54.131Z,1.90
2023-04-23T10:16:04.703Z,1.93
2023-04-23T10:19:12.549Z,2.55
2023-04-23T10:22:19.356Z,1.90
2023-04-23T10:25:24.397Z,2.20
2023-04-23T10:28:31.853Z,1.52
2023-04-23T10:31:33.983Z,2.42
2023-04-23T10:34:35.725Z,2.58
2023-04-23T10:37:38.333Z,2.17
2023-04-23T10:40:44.447Z,2.15
2023-04-23T10:43:45.988Z,1.98
2023-04-23T10:46:58.473Z,2.38
2023-04-23T10:50:18.977Z,1.85
2023-04-23T10:53:23.409Z,1.92
2023-04-23T10:56:28.019Z,2.30
2023-04-23T10:59:34.076Z,1.80
2023-04-23T11:02:45.073Z,2.38
2023-04-23T11:05:46.708Z,2.50
2023-04-23T11:08:53.784Z,2.28
2023-04-23T11:11:55.717Z,2.25
2023-04-23T11:15:01.675Z,2.05
2023-04-23T11:18:03.268Z,2.58
2023-04-23T11:21:05.049Z,2.00
2023-04-23T11:24:07.785Z,2.15
2023-04-23T11:27:14.390Z,2.10
2023-04-23T11:30:18.763Z,1.95
2023-04-23T11:33:20.395Z,2.28
2023-04-23T11:36:23.076Z,1.90
2023-04-23T11:39:24.791Z,2.20
2023-04-23T11:42:26.769Z,2.22
2023-04-23T11:45:29.852Z,2.25
2023-04-23T11:48:31.370Z,2.27
2023-04-23T11:51:32.818Z,2.00
2023-04-23T11:54:34.751Z,2.33
2023-04-23T11:57:37.412Z,2.25
2023-04-23T12:00:39.019Z,1.90
2023-04-23T12:03:40.713Z,2.00
2023-04-23T12:06:45.562Z,2.13
2023-04-23T12:09:47.195Z,2.35
2023-04-23T12:12:54.729Z,2.67
2023-04-23T12:15:59.045Z,2.35
2023-04-23T12:19:01.130Z,2.30
2023-04-23T12:22:04.263Z,2.28
2023-04-23T12:25:09.517Z,2.45
2023-04-23T12:28:11.007Z,2.38
2023-04-23T12:31:19.331Z,2.50
2023-04-23T12:34:21.618Z,2.58
2023-04-23T12:37:28.558Z,2.28
2023-04-23T12:40:30.022Z,2.10
2023-04-23T12:43:32.069Z,2.55
2023-04-23T12:46:37.729Z,2.63
2023-04-23T12:49:40.879Z,2.70
2023-04-23T12:52:43.233Z,2.83
2023-04-23T12:55:45.666Z,2.30
2023-04-23T12:58:47.983Z,2.60
2023-04-23T13:01:50.924Z,2.70
2023-04-23T13:04:54.478Z,2.67
2023-04-23T13:07:56.021Z,2.25
2023-04-23T13:10:57.471Z,3.15
2023-04-23T13:13:59.029Z,2.38
2023-04-23T13:17:00.922Z,3.53
2023-04-23T13:20:02.520Z,2.65
2023-04-23T13:23:04.100Z,3.20
2023-04-23T13:26:08.186Z,3.58
2023-04-23T13:29:09.744Z,2.80
2023-04-23T13:32:11.356Z,2.65
2023-04-23T13:35:14.439Z,2.83
2023-04-23T13:38:16.682Z,2.70
2023-04-23T13:41:18.220Z,2.60
2023-04-23T13:44:19.730Z,2.80
2023-04-23T13:47:21.627Z,3.30
2023-04-23T13:50:23.108Z,4.38
2023-04-23T13:53:25.373Z,3.30
2023-04-23T13:56:27.545Z,3.08
2023-04-23T13:59:29.236Z,2.97
2023-04-23T14:02:30.850Z,3.10
2023-04-23T14:05:32.503Z,2.53
2023-04-23T14:08:36.717Z,2.60
2023-04-23T14:11:40.320Z,2.80
2023-04-23T14:14:41.997Z,2.55
2023-04-23T14:17:45.384Z,2.80
2023-04-23T14:20:46.940Z,2.70
2023-04-23T14:23:48.346Z,2.05
2023-04-23T14:26:50.310Z,1.98
2023-04-23T14:29:57.853Z,1.50
2023-04-23T14:32:59.527Z,1.90
2023-04-23T14:36:01.264Z,2.17
2023-04-23T14:39:05.364Z,1.92
2023-04-23T14:42:06.805Z,2.20
2023-04-23T14:45:08.819Z,1.75
2023-04-23T14:48:10.489Z,2.17
2023-04-23T14:51:11.993Z,1.90
2023-04-23T14:54:13.702Z,2.20
2023-04-23T14:57:15.241Z,2.17
2023-04-23T15:00:17.672Z,1.90
2023-04-23T15:03:19.361Z,2.10
2023-04-23T15:06:21.301Z,1.85
2023-04-23T15:09:22.867Z,2.33
2023-04-23T15:12:47.360Z,2.58
2023-04-23T15:15:50.690Z,2.10
2023-04-23T15:18:52.219Z,1.73
2023-04-23T15:21:53.893Z,1.90
2023-04-23T15:24:55.395Z,1.52
2023-04-23T15:27:57.869Z,2.17
2023-04-23T15:30:59.377Z,1.95
2023-04-23T15:34:01.665Z,2.30
2023-04-23T15:37:03.163Z,2.03
2023-04-23T15:40:05.057Z,1.92
2023-04-23T15:43:06.589Z,2.17
2023-04-23T15:46:08.188Z,1.50
2023-04-23T15:49:09.823Z,2.25
2023-04-23T15:52:11.296Z,2.10
2023-04-23T15:55:12.757Z,2.63
2023-04-23T15:58:14.219Z,1.77
2023-04-23T16:01:17.386Z,1.75
2023-04-23T16:04:19.023Z,2.08
2023-04-23T16:07:20.794Z,2.40
2023-04-23T16:10:22.328Z,2.22
2023-04-23T16:13:24.256Z,2.13
2023-04-23T16:16:26.009Z,1.58
2023-04-23T16:19:28.390Z,1.60
2023-04-23T16:22:29.880Z,1.48
2023-04-23T16:25:31.355Z,2.75
2023-04-23T16:28:32.846Z,2.00
2023-04-23T16:31:34.491Z,2.00
2023-04-23T16:34:35.961Z,2.08
2023-04-23T16:37:37.768Z,1.60
2023-04-23T16:40:39.815Z,1.98
2023-04-23T16:43:41.437Z,1.90
2023-04-23T16:46:43.176Z,1.98
2023-04-23T16:49:46.048Z,2.50
2023-04-23T16:52:47.708Z,2.08
2023-04-23T16:55:49.279Z,1.90
2023-04-23T16:58:50.831Z,1.85
2023-04-23T17:01:52.375Z,2.28
2023-04-23T17:04:54.041Z,2.55
2023-04-23T17:07:55.839Z,2.30
2023-04-23T17:10:57.545Z,2.20
2023-04-23T17:13:59.037Z,3.17
2023-04-23T17:17:00.638Z,2.92
2023-04-23T17:20:03.688Z,1.65
2023-04-23T17:23:05.150Z,3.17
2023-04-23T17:26:06.922Z,2.35
2023-04-23T17:29:08.397Z,2.08
2023-04-23T17:32:09.929Z,1.83
2023-04-23T17:35:11.510Z,2.17
2023-04-23T17:38:13.820Z,2.33
2023-04-23T17:41:16.925Z,1.80
2023-04-23T17:44:18.441Z,2.07
2023-04-23T17:47:20.064Z,2.58
2023-04-23T17:50:22.007Z,2.83
2023-04-23T17:53:23.531Z,2.78
2023-04-23T17:56:25.054Z,2.80
2023-04-23T17:59:26.522Z,2.88
2023-04-23T18:02:28.224Z,2.90
2023-04-23T18:05:30.878Z,2.90
2023-04-23T18:08:32.365Z,2.15
2023-04-23T18:11:33.993Z,2.42
2023-04-23T18:14:35.472Z,1.50
2023-04-23T18:17:37.097Z,1.65
2023-04-23T18:20:40.094Z,1.10
2023-04-23T18:23:41.662Z,1.73
2023-04-23T18:26:43.138Z,2.08
2023-04-23T18:29:45.401Z,1.83
2023-04-23T18:32:49.154Z,2.50
2023-04-23T18:35:53.207Z,2.00
2023-04-23T18:38:54.775Z,2.53
2023-04-23T18:41:56.584Z,1.90
2023-04-23T18:44:58.290Z,2.42
2023-04-23T18:48:23.291Z,1.80
2023-04-23T18:51:30.056Z,1.67
2023-04-23T18:54:31.579Z,1.45
2023-04-23T18:57:33.135Z,1.83
2023-04-23T19:00:34.758Z,2.03
2023-04-23T19:03:36.761Z,1.95
2023-04-23T19:06:38.541Z,1.33
2023-04-23T19:09:40.420Z,1.77
2023-04-23T19:12:43.093Z,1.38
2023-04-23T19:15:44.647Z,1.40
2023-04-23T19:18:46.205Z,1.45
2023-04-23T19:21:47.685Z,1.30
2023-04-23T19:24:49.157Z,1.42
2023-04-23T19:27:50.808Z,1.17
2023-04-23T19:30:52.372Z,1.98
2023-04-23T19:33:53.829Z,3.30
2023-04-23T19:36:55.253Z,1.80
2023-04-23T19:39:56.701Z,1.80
2023-04-23T19:42:58.219Z,1.20
2023-04-23T19:46:03.206Z,0.90
2023-04-23T19:49:04.770Z,1.80
2023-04-23T19:52:07.116Z,1.63
2023-04-23T19:55:08.994Z,1.25
2023-04-23T19:58:10.695Z,1.83
2023-04-23T20:01:13.114Z,1.45
2023-04-23T20:04:14.965Z,1.15
2023-04-23T20:07:16.968Z,1.70
2023-04-23T20:10:18.421Z,1.30
2023-04-23T20:13:20.715Z,1.40
2023-04-23T20:16:22.239Z,1.20
2023-04-23T20:19:25.881Z,1.02
2023-04-23T20:22:31.003Z,1.15
2023-04-23T20:25:32.554Z,1.17
2023-04-23T20:28:34.310Z,0.90
2023-04-23T20:31:36.316Z,1.38
2023-04-23T20:34:37.767Z,1.63
2023-04-23T20:37:40.691Z,1.17
2023-04-23T20:40:42.270Z,1.63
2023-04-23T20:43:43.786Z,1.40
2023-04-23T20:46:45.314Z,1.50
2023-04-23T20:49:46.845Z,1.55
2023-04-23T20:52:48.593Z,1.65
2023-04-23T20:55:50.312Z,1.40
2023-04-23T20:58:51.907Z,1.27
2023-04-23T21:01:53.608Z,1.70
2023-04-23T21:04:55.217Z,1.73
2023-04-23T21:07:56.810Z,1.95
2023-04-23T21:10:58.621Z,1.25
2023-04-23T21:14:00.968Z,1.50
2023-04-23T21:17:02.539Z,1.15
2023-04-23T21:20:08.245Z,1.25
2023-04-23T21:23:13.164Z,1.02
2023-04-23T21:26:14.642Z,1.50
2023-04-23T21:29:16.260Z,0.80
2023-04-23T21:32:17.761Z,0.93
2023-04-23T21:35:19.547Z,0.98
2023-04-23T21:38:21.487Z,0.80
2023-04-23T21:41:24.460Z,0.73
2023-04-23T21:44:28.444Z,0.88
2023-04-23T21:47:29.979Z,1.58
2023-04-23T21:50:32.700Z,0.95
2023-04-23T21:53:34.352Z,0.90
2023-04-23T21:56:35.914Z,0.73
2023-04-23T21:59:37.472Z,0.85
2023-04-23T22:02:40.383Z,1.00
2023-04-23T22:05:42.429Z,1.23
2023-04-23T22:08:44.913Z,0.82
2023-04-23T22:12:01.104Z,1.00
2023-04-23T22:15:08.501Z,1.00
2023-04-23T22:18:10.311Z,0.70
2023-04-23T22:21:11.800Z,0.50
2023-04-23T22:24:13.304Z,0.55
2023-04-23T22:27:14.859Z,0.73
2023-04-23T22:30:16.385Z,1.00
2023-04-23T22:33:18.037Z,0.60
2023-04-23T22:36:19.665Z,0.70
2023-04-23T22:39:21.395Z,0.80
2023-04-23T22:42:22.921Z,0.80
2023-04-23T22:45:24.428Z,1.42
2023-04-23T22:48:27.926Z,0.98
2023-04-23T22:51:33.369Z,1.35
2023-04-23T22:54:34.939Z,1.52
2023-04-23T22:57:36.454Z,1.42
2023-04-23T23:00:38.179Z,1.10
2023-04-23T23:03:39.759Z,1.42
2023-04-23T23:06:42.999Z,1.38
2023-04-23T23:09:44.707Z,1.07
2023-04-23T23:12:46.360Z,1.50
2023-04-23T23:15:47.930Z,0.95
2023-04-23T23:18:49.585Z,1.25
2023-04-23T23:21:51.526Z,1.50
2023-04-23T23:24:53.035Z,1.52
2023-04-23T23:27:54.497Z,1.70
2023-04-23T23:30:56.083Z,1.20
2023-04-23T23:33:57.773Z,1.55
2023-04-23T23:36:59.291Z,1.13
2023-04-23T23:40:00.824Z,1.15
2023-04-23T23:43:02.276Z,1.05
2023-04-23T23:46:03.815Z,1.40
2023-04-23T23:49:06.091Z,1.42
2023-04-23T23:52:07.559Z,1.50
2023-04-23T23:55:10.247Z,1.00
2023-04-23T23:58:11.751Z,1.20
